ENZVENCN

Guest
Details From ENZV - Stavanger Lufthavn Sola
To ENCN - Kristiansand lufthavn Kjevik
Flight Number -
Tags decoded
Created
Modified
Stats Distance 87 nm / 161 km
Max Altitude 0 ft / 0 m
Waypoints 2
Social Downloads 0
Likes 0
Share VATSIM

Download

Looking for another format? Having issues loading an existing format? Contact us
Advertisement - Login to hide

Notes

Requested: ENZV ENCN

Route

ENZV ENCN

ID Type Via Altitude Latitude Longitude Leg Dist Tot Dist Heading (true) Name
O ENZV APT - 0 ft / 0 m 58.88046˚ 5.63143˚ - 0 nm - Stavanger Lufthavn Sola
O ENCN APT - 0 ft / 0 m 58.20419˚ 8.08534˚ 86 nm 86 nm 117° / 119° Kristiansand lufthavn Kjevik

Altitude Profile

Advertisement - Login to hide

ENZV

Details ICAO ENZV (SVG)
Name Stavanger Lufthavn Sola
Region Norway
Timezone Europe/Oslo (UTC+1.0)
Stats Elevation 29 ft / 9 m (AMSL)
Location 58.880464° 5.631430°
Runways 2
Magnetic Variation 1.090° E

METAR

ENZV 131850Z 12011KT 9999 SCT023CB BKN032 03/01 Q0978 TEMPO 4000 SHRAGS BKN012CB

Decode

TAF

TAF AMD ENZV 1318/1418 14012KT 9999 FEW020 BKN030 TEMPO 1318/1418 14015G25KT 4000 SHRAGS BKN012CB TEMPO 1409/1418 VRB08KT

Decode

Departure Runways

ID Width Length Bearing (true) Bearing (mag) Surface Threshold Offset Overrun Length
11 148 ft / 45 m 8,018 ft / 2,444 m 106.32° 105.23° Asphalt 328 ft / 100 m 0 ft / 0 m
18 197 ft / 60 m 8,372 ft / 2,552 m 179.12° 178.03° Asphalt 197 ft / 60 m 0 ft / 0 m
29 148 ft / 45 m 8,018 ft / 2,444 m 286.36° 285.27° Asphalt 502 ft / 153 m 0 ft / 0 m
36 197 ft / 60 m 8,372 ft / 2,552 m 359.12° 358.03° Asphalt 0 ft / 0 m 0 ft / 0 m

ENCN

Details ICAO ENCN (KRS)
Name Kristiansand lufthavn Kjevik
Region Norway
Timezone Europe/Oslo (UTC+1.0)
Stats Elevation 57 ft / 17 m (AMSL)
Location 58.204191° 8.085337°
Runways 1
Magnetic Variation 2.111° E

METAR

ENCN 131850Z 05006KT 5000 BR SCT003 SCT022 00/M00 Q0982

Decode

TAF

Not found

Destination Runways

ID Width Length Bearing (true) Bearing (mag) Surface Threshold Offset Overrun Length
04 148 ft / 45 m 6,667 ft / 2,032 m 34.94° 32.83° Asphalt 217 ft / 66 m 131 ft / 40 m
22 148 ft / 45 m 6,667 ft / 2,032 m 214.96° 212.85° Asphalt 325 ft / 99 m 312 ft / 95 m

Approach Navaids

Runway Type Ident Frequency Range Bearing (true) Bearing (mag) Slope Elevation
04 Localiser CN 110.30 MHz 18 nm / 33 km 34.96° 32.85° - 57 ft / 17 m (AMSL)
04 Glidescope CN 110.30 MHz 10 nm / 19 km 34.95° 32.84° 3.40° 57 ft / 17 m (AMSL)
22 Localiser KJ 110.90 MHz 18 nm / 33 km 214.94° 212.83° - 57 ft / 17 m (AMSL)
22 Glidescope KJ 110.90 MHz 10 nm / 19 km 214.95° 212.84° 3.60° 57 ft / 17 m (AMSL)

Popular Alternatives